createdAt,value
2018-07-16T00:01:34.612Z,15.00
2018-07-16T00:04:03.528Z,15.00
2018-07-16T00:06:35.812Z,15.00
2018-07-16T00:09:04.647Z,15.00
2018-07-16T00:11:36.316Z,14.90
2018-07-16T00:14:05.457Z,14.90
2018-07-16T00:16:37.206Z,14.90
2018-07-16T00:19:06.211Z,14.90
2018-07-16T00:21:38.159Z,14.80
2018-07-16T00:24:06.964Z,14.80
2018-07-16T00:26:39.966Z,14.80
2018-07-16T00:29:08.781Z,14.70
2018-07-16T00:31:41.606Z,14.70
2018-07-16T00:34:10.526Z,14.60
2018-07-16T00:36:43.523Z,14.60
2018-07-16T00:39:12.349Z,14.60
2018-07-16T00:41:44.371Z,14.50
2018-07-16T00:44:13.206Z,14.60
2018-07-16T00:46:45.384Z,14.60
2018-07-16T00:49:14.146Z,14.50
2018-07-16T00:51:46.309Z,14.50
2018-07-16T00:54:15.623Z,14.40
2018-07-16T00:56:51.669Z,14.30
2018-07-16T00:59:20.466Z,14.30
2018-07-16T01:01:52.506Z,14.30
2018-07-16T01:04:21.262Z,14.30
2018-07-16T01:06:53.353Z,14.20
2018-07-16T01:09:22.268Z,14.20
2018-07-16T01:11:54.367Z,14.20
2018-07-16T01:14:23.177Z,14.10
2018-07-16T01:16:55.223Z,14.10
2018-07-16T01:19:23.993Z,14.00
2018-07-16T01:21:56.996Z,14.00
2018-07-16T01:24:25.956Z,14.00
2018-07-16T01:26:58.746Z,14.00
2018-07-16T01:29:27.560Z,14.00
2018-07-16T01:31:59.566Z,13.90
2018-07-16T01:34:28.311Z,13.80
2018-07-16T01:37:00.486Z,13.80
2018-07-16T01:39:29.237Z,13.90
2018-07-16T01:42:01.330Z,13.80
2018-07-16T01:44:30.107Z,13.80
2018-07-16T01:47:02.311Z,13.70
2018-07-16T01:49:31.146Z,13.70
2018-07-16T01:52:03.081Z,13.70
2018-07-16T01:54:31.868Z,13.70
2018-07-16T01:57:18.428Z,13.60
2018-07-16T01:59:47.215Z,13.60
2018-07-16T02:02:19.415Z,13.50
2018-07-16T02:04:48.188Z,13.50
2018-07-16T02:09:49.038Z,13.50
2018-07-16T02:12:21.146Z,13.50
2018-07-16T02:14:49.902Z,13.40
2018-07-16T02:17:22.911Z,13.40
2018-07-16T02:19:51.696Z,13.40
2018-07-16T02:22:24.656Z,13.40
2018-07-16T02:24:53.481Z,13.40
2018-07-16T02:27:25.548Z,13.30
2018-07-16T02:29:54.431Z,13.30
2018-07-16T02:32:26.536Z,13.40
2018-07-16T02:34:55.652Z,13.30
2018-07-16T02:37:27.376Z,13.30
2018-07-16T02:39:56.102Z,13.30
2018-07-16T02:42:28.151Z,13.20
2018-07-16T02:44:57.317Z,13.20
2018-07-16T02:47:30.052Z,13.20
2018-07-16T02:49:58.758Z,13.20
2018-07-16T02:52:31.812Z,13.10
2018-07-16T02:55:00.547Z,13.10
2018-07-16T02:57:37.149Z,13.10
2018-07-16T03:00:06.395Z,13.20
2018-07-16T03:02:41.747Z,13.10
2018-07-16T03:05:15.967Z,13.10
2018-07-16T03:07:49.831Z,13.10
2018-07-16T03:10:18.726Z,13.10
2018-07-16T03:12:50.801Z,13.10
2018-07-16T03:15:19.546Z,13.10
2018-07-16T03:17:51.572Z,13.10
2018-07-16T03:20:20.401Z,13.10
2018-07-16T03:22:56.439Z,13.10
2018-07-16T03:27:57.882Z,13.10
2018-07-16T03:30:26.663Z,13.00
2018-07-16T03:32:58.706Z,13.00
2018-07-16T03:35:27.483Z,13.10
2018-07-16T03:37:59.721Z,13.10
2018-07-16T03:40:28.566Z,13.10
2018-07-16T03:43:00.581Z,13.10
2018-07-16T03:45:29.426Z,13.10
2018-07-16T03:48:01.493Z,13.10
2018-07-16T03:50:30.296Z,13.10
2018-07-16T03:53:02.328Z,13.10
2018-07-16T03:55:31.221Z,13.20
2018-07-16T03:58:06.866Z,13.10
2018-07-16T04:00:35.822Z,13.10
2018-07-16T04:03:08.537Z,13.10
2018-07-16T04:05:37.334Z,13.20
2018-07-16T04:08:09.443Z,13.20
2018-07-16T04:10:38.249Z,13.20
2018-07-16T04:13:10.324Z,13.30
2018-07-16T04:18:16.731Z,13.60
2018-07-16T04:20:45.520Z,13.80
2018-07-16T04:23:17.636Z,13.80
2018-07-16T04:25:46.564Z,13.90
2018-07-16T04:28:18.456Z,14.00
2018-07-16T04:30:47.299Z,14.10
2018-07-16T04:33:19.332Z,14.10
2018-07-16T04:35:48.191Z,14.20
2018-07-16T04:38:21.113Z,14.30
2018-07-16T04:40:49.878Z,14.40
2018-07-16T04:43:22.835Z,14.60
2018-07-16T04:45:51.737Z,14.70
2018-07-16T04:48:23.890Z,14.80
2018-07-16T04:50:52.898Z,14.90
2018-07-16T04:53:24.612Z,15.10
2018-07-16T04:55:54.366Z,15.20
2018-07-16T04:58:31.128Z,15.30
2018-07-16T05:01:00.044Z,15.40
2018-07-16T05:03:32.917Z,15.60
2018-07-16T05:06:01.971Z,15.70
2018-07-16T05:08:34.503Z,16.20
2018-07-16T05:11:03.556Z,16.50
2018-07-16T05:13:36.301Z,16.70
2018-07-16T05:16:13.115Z,16.70
2018-07-16T05:18:49.836Z,16.90
2018-07-16T05:21:18.538Z,17.20
2018-07-16T05:23:50.728Z,17.30
2018-07-16T05:26:19.491Z,17.30
2018-07-16T05:28:51.556Z,17.40
2018-07-16T05:31:20.262Z,17.30
2018-07-16T05:33:52.530Z,17.50
2018-07-16T05:36:21.248Z,17.50
2018-07-16T05:38:53.379Z,17.50
2018-07-16T05:41:22.276Z,17.50
2018-07-16T05:43:54.270Z,17.50
2018-07-16T05:46:23.086Z,17.70
2018-07-16T05:48:56.185Z,17.70
2018-07-16T05:51:25.051Z,17.80
2018-07-16T05:53:57.856Z,17.80
2018-07-16T05:56:26.723Z,17.90
2018-07-16T05:59:02.376Z,17.90
2018-07-16T06:01:31.242Z,17.90
2018-07-16T06:04:04.396Z,18.00
2018-07-16T06:06:33.450Z,18.00
2018-07-16T06:09:06.755Z,18.10
2018-07-16T06:11:36.009Z,18.10
2018-07-16T06:14:07.731Z,18.10
2018-07-16T06:16:36.806Z,18.20
2018-07-16T06:19:09.526Z,18.20
2018-07-16T06:21:38.464Z,18.30
2018-07-16T06:24:12.193Z,18.40
2018-07-16T06:26:40.994Z,18.50
2018-07-16T06:29:13.894Z,18.50
2018-07-16T06:31:43.006Z,18.60
2018-07-16T06:34:14.838Z,18.70
2018-07-16T06:36:44.289Z,18.80
2018-07-16T06:39:16.689Z,18.80
2018-07-16T06:41:45.576Z,18.80
2018-07-16T06:44:17.499Z,18.90
2018-07-16T06:46:46.324Z,18.90
2018-07-16T06:49:18.360Z,18.90
2018-07-16T06:51:47.201Z,19.00
2018-07-16T06:54:20.266Z,19.20
2018-07-16T06:56:49.068Z,19.20
2018-07-16T06:59:23.812Z,19.20
2018-07-16T07:01:57.761Z,19.30
2018-07-16T07:04:31.064Z,19.40
2018-07-16T07:07:00.932Z,19.60
2018-07-16T07:09:32.886Z,19.70
2018-07-16T07:12:01.922Z,19.60
2018-07-16T07:14:34.716Z,19.70
2018-07-16T07:17:03.642Z,20.00
2018-07-16T07:19:35.496Z,20.10
2018-07-16T07:22:04.711Z,20.30
2018-07-16T07:24:38.232Z,20.50
2018-07-16T07:27:07.257Z,20.90
2018-07-16T07:29:39.962Z,21.10
2018-07-16T07:32:08.827Z,21.40
2018-07-16T07:34:40.830Z,21.50
2018-07-16T07:37:09.732Z,22.00
2018-07-16T07:39:41.750Z,22.20
2018-07-16T07:42:11.013Z,22.70
2018-07-16T07:44:47.441Z,22.90
2018-07-16T07:47:19.417Z,23.50
2018-07-16T07:49:48.314Z,23.40
2018-07-16T07:52:21.296Z,23.80
2018-07-16T07:54:50.422Z,24.20
2018-07-16T07:57:23.010Z,24.20
2018-07-16T07:59:55.256Z,24.20
2018-07-16T08:02:27.373Z,24.20
2018-07-16T08:04:57.007Z,24.80
2018-07-16T08:10:00.170Z,25.50
2018-07-16T08:12:32.847Z,25.50
2018-07-16T08:15:01.722Z,25.60
2018-07-16T08:17:33.668Z,26.00
2018-07-16T08:20:02.428Z,26.30
2018-07-16T08:22:34.536Z,26.60
2018-07-16T08:25:03.640Z,26.30
2018-07-16T08:27:35.542Z,26.50
2018-07-16T08:30:04.497Z,26.80
2018-07-16T08:32:38.152Z,27.00
2018-07-16T08:35:07.396Z,26.50
2018-07-16T08:37:39.921Z,26.70
2018-07-16T08:40:09.102Z,27.40
2018-07-16T08:45:12.130Z,28.10
2018-07-16T08:47:44.412Z,28.10
2018-07-16T08:50:13.272Z,28.30
2018-07-16T08:52:46.220Z,28.30
2018-07-16T08:55:15.177Z,27.80
2018-07-16T08:57:48.132Z,27.50
2018-07-16T09:00:19.957Z,28.00
2018-07-16T09:02:51.677Z,27.60
2018-07-16T09:05:20.680Z,28.10
2018-07-16T09:07:52.627Z,28.60
2018-07-16T09:10:21.713Z,28.70
2018-07-16T09:12:55.260Z,29.00
2018-07-16T09:15:24.493Z,28.80
2018-07-16T09:17:57.044Z,29.20
2018-07-16T09:22:57.980Z,29.50
2018-07-16T09:25:27.118Z,29.90
2018-07-16T09:27:59.712Z,29.80
2018-07-16T09:30:28.681Z,29.60
2018-07-16T09:33:01.401Z,29.70
2018-07-16T09:35:30.367Z,30.10
2018-07-16T09:38:03.275Z,29.20
2018-07-16T09:40:32.300Z,29.70
2018-07-16T09:43:05.090Z,29.50
2018-07-16T09:45:35.080Z,30.10
2018-07-16T09:48:06.879Z,29.70
2018-07-16T09:50:35.800Z,29.80
2018-07-16T09:53:08.692Z,30.20
2018-07-16T09:55:37.600Z,29.80
2018-07-16T09:58:11.275Z,29.90
2018-07-16T10:00:48.832Z,30.20
2018-07-16T10:03:22.084Z,30.90
2018-07-16T10:05:50.960Z,30.60
2018-07-16T10:08:23.007Z,30.70
2018-07-16T10:10:52.044Z,31.20
2018-07-16T10:13:24.120Z,31.30
2018-07-16T10:15:53.100Z,31.30
2018-07-16T10:18:25.720Z,31.10
2018-07-16T10:20:54.641Z,31.60
2018-07-16T10:23:27.433Z,32.00
2018-07-16T10:25:56.341Z,32.30
2018-07-16T10:28:29.241Z,32.00
2018-07-16T10:30:58.182Z,32.00
2018-07-16T10:33:30.992Z,31.70
2018-07-16T10:35:59.941Z,32.00
2018-07-16T10:38:31.924Z,32.20
2018-07-16T10:41:00.861Z,32.30
2018-07-16T10:43:33.901Z,32.40
2018-07-16T10:46:03.011Z,32.50
2018-07-16T10:48:35.580Z,32.00
2018-07-16T10:51:04.513Z,32.70
2018-07-16T10:53:37.325Z,32.80
2018-07-16T10:56:06.500Z,33.30
2018-07-16T10:58:40.100Z,32.80
2018-07-16T11:01:12.253Z,33.10
2018-07-16T11:03:44.700Z,33.30
2018-07-16T11:06:18.901Z,33.10
2018-07-16T11:08:50.881Z,32.30
2018-07-16T11:11:19.940Z,32.30
2018-07-16T11:13:52.621Z,32.60
2018-07-16T11:16:21.581Z,32.90
2018-07-16T11:18:53.506Z,32.50
2018-07-16T11:21:22.500Z,32.80
2018-07-16T11:23:58.920Z,33.20
2018-07-16T11:26:27.840Z,32.80
2018-07-16T11:28:59.941Z,33.10
2018-07-16T11:31:28.920Z,33.40
2018-07-16T11:34:01.661Z,33.80
2018-07-16T11:36:30.681Z,33.70
2018-07-16T11:39:04.340Z,33.70
2018-07-16T11:41:33.180Z,33.70
2018-07-16T11:44:06.100Z,33.60
2018-07-16T11:46:35.200Z,33.50
2018-07-16T11:49:07.823Z,33.40
2018-07-16T11:51:36.860Z,33.60
2018-07-16T11:54:08.761Z,33.80
2018-07-16T11:56:37.681Z,34.10
2018-07-16T11:59:09.689Z,34.40
2018-07-16T12:01:46.768Z,34.20
2018-07-16T12:04:18.643Z,34.10
2018-07-16T12:06:47.692Z,34.00
2018-07-16T12:09:19.541Z,34.00
2018-07-16T12:11:48.561Z,34.20
2018-07-16T12:14:21.329Z,34.10
2018-07-16T12:16:50.288Z,34.00
2018-07-16T12:19:23.092Z,34.00
2018-07-16T12:24:54.885Z,33.90
2018-07-16T12:27:23.772Z,34.40
2018-07-16T12:29:56.620Z,34.50
2018-07-16T12:32:25.572Z,34.40
2018-07-16T12:34:58.461Z,34.70
2018-07-16T12:37:27.572Z,33.80
2018-07-16T12:40:01.046Z,34.20
2018-07-16T12:42:29.940Z,34.60
2018-07-16T12:45:02.001Z,35.20
2018-07-16T12:47:31.242Z,34.40
2018-07-16T12:50:03.713Z,34.30
2018-07-16T12:52:32.841Z,33.90
2018-07-16T12:55:04.641Z,34.20
2018-07-16T12:57:33.681Z,34.10
2018-07-16T13:00:06.373Z,34.30
2018-07-16T13:02:38.440Z,34.70
2018-07-16T13:05:10.880Z,34.60
2018-07-16T13:07:39.941Z,34.70
2018-07-16T13:10:12.593Z,34.20
2018-07-16T13:12:41.616Z,34.00
2018-07-16T13:15:13.532Z,33.50
2018-07-16T13:20:15.400Z,34.50
2018-07-16T13:22:44.340Z,34.90
2018-07-16T13:25:20.740Z,35.00
2018-07-16T13:27:49.742Z,35.00
2018-07-16T13:30:21.812Z,33.90
2018-07-16T13:32:50.681Z,33.60
2018-07-16T13:35:23.460Z,33.30
2018-07-16T13:37:52.500Z,33.70
2018-07-16T13:40:25.340Z,33.30
2018-07-16T13:45:26.140Z,34.50
2018-07-16T13:47:55.086Z,34.20
2018-07-16T13:50:27.001Z,33.50
2018-07-16T13:52:55.886Z,33.50
2018-07-16T13:55:27.860Z,34.50
2018-07-16T13:57:56.902Z,35.10
2018-07-16T14:00:28.809Z,35.30
2018-07-16T14:03:01.883Z,35.40
2018-07-16T14:05:34.140Z,35.00
2018-07-16T14:08:03.000Z,34.50
2018-07-16T14:10:34.982Z,33.90
2018-07-16T14:13:03.913Z,33.30
2018-07-16T14:15:35.960Z,32.80
2018-07-16T14:18:10.408Z,33.10
2018-07-16T14:20:43.095Z,33.00
2018-07-16T14:23:11.981Z,33.60
2018-07-16T14:25:43.901Z,33.70
2018-07-16T14:28:12.777Z,34.60
2018-07-16T14:30:45.771Z,34.40
2018-07-16T14:33:14.745Z,34.50
2018-07-16T14:35:46.549Z,33.90
2018-07-16T14:38:15.404Z,33.90
2018-07-16T14:40:48.520Z,33.30
2018-07-16T14:43:17.451Z,33.00
2018-07-16T14:45:50.227Z,33.10
2018-07-16T14:48:19.124Z,33.00
2018-07-16T14:50:51.096Z,32.50
2018-07-16T14:53:19.986Z,32.90
2018-07-16T14:55:51.942Z,33.30
2018-07-16T14:58:20.946Z,33.30
2018-07-16T15:00:52.892Z,32.60
2018-07-16T15:03:25.689Z,33.20
2018-07-16T15:08:27.155Z,33.20
2018-07-16T15:11:00.077Z,33.30
2018-07-16T15:13:28.944Z,33.50
2018-07-16T15:16:01.017Z,33.10
2018-07-16T15:18:30.092Z,33.10
2018-07-16T15:21:02.116Z,33.80
2018-07-16T15:23:31.087Z,33.70
2018-07-16T15:26:03.617Z,33.50
2018-07-16T15:28:32.437Z,34.00
2018-07-16T15:31:05.384Z,33.50
2018-07-16T15:33:34.376Z,33.50
2018-07-16T15:36:07.207Z,33.30
2018-07-16T15:38:36.172Z,33.10
2018-07-16T15:41:08.052Z,32.90
2018-07-16T15:43:37.781Z,32.60
2018-07-16T15:46:09.786Z,32.70
2018-07-16T15:48:38.800Z,32.80
2018-07-16T15:51:10.701Z,32.80
2018-07-16T15:53:40.010Z,32.00
2018-07-16T15:56:13.430Z,31.80
2018-07-16T15:58:42.377Z,31.80
2018-07-16T16:01:23.365Z,31.70
2018-07-16T16:03:59.250Z,31.40
2018-07-16T16:06:32.400Z,31.50
2018-07-16T16:09:01.316Z,31.20
2018-07-16T16:11:34.220Z,31.20
2018-07-16T16:14:03.026Z,31.10
2018-07-16T16:16:35.105Z,30.70
2018-07-16T16:19:03.953Z,30.40
2018-07-16T16:21:36.815Z,30.50
2018-07-16T16:24:05.630Z,30.30
2018-07-16T16:26:37.686Z,30.40
2018-07-16T16:29:06.618Z,30.20
2018-07-16T16:31:39.481Z,30.20
2018-07-16T16:34:08.336Z,30.00
2018-07-16T16:36:41.334Z,29.90
2018-07-16T16:39:10.726Z,29.70
2018-07-16T16:41:43.083Z,29.30
2018-07-16T16:44:11.978Z,29.30
2018-07-16T16:46:44.036Z,29.00
2018-07-16T16:49:13.465Z,29.10
2018-07-16T16:51:45.696Z,29.00
2018-07-16T16:54:14.581Z,29.10
2018-07-16T16:56:47.461Z,28.90
2018-07-16T16:59:16.356Z,28.80
2018-07-16T17:01:49.382Z,28.90
2018-07-16T17:04:21.478Z,28.80
2018-07-16T17:06:53.921Z,28.60
2018-07-16T17:09:22.766Z,28.60
2018-07-16T17:11:54.715Z,28.40
2018-07-16T17:14:23.561Z,28.30
2018-07-16T17:16:56.546Z,28.20
2018-07-16T17:19:25.350Z,28.10
2018-07-16T17:21:58.286Z,28.00
2018-07-16T17:24:27.036Z,27.90
2018-07-16T17:26:59.273Z,27.80
2018-07-16T17:29:28.186Z,27.70
2018-07-16T17:32:00.012Z,27.80
2018-07-16T17:34:29.466Z,27.70
2018-07-16T17:37:01.931Z,27.60
2018-07-16T17:39:30.651Z,27.50
2018-07-16T17:42:07.287Z,27.40
2018-07-16T17:44:36.131Z,27.40
2018-07-16T17:47:08.129Z,27.10
2018-07-16T17:49:39.380Z,27.20
2018-07-16T17:52:11.744Z,27.10
2018-07-16T17:54:40.499Z,27.10
2018-07-16T17:57:13.481Z,27.00
2018-07-16T17:59:42.517Z,26.90
2018-07-16T18:02:15.366Z,27.00
2018-07-16T18:04:47.348Z,26.90
2018-07-16T18:07:25.157Z,26.80
2018-07-16T18:09:53.962Z,26.70
2018-07-16T18:12:26.064Z,26.60
2018-07-16T18:14:54.816Z,26.50
2018-07-16T18:17:26.996Z,26.50
2018-07-16T18:19:55.726Z,26.40
2018-07-16T18:22:27.871Z,26.40
2018-07-16T18:24:56.601Z,26.30
2018-07-16T18:27:28.769Z,26.20
2018-07-16T18:29:57.923Z,26.20
2018-07-16T18:32:31.628Z,26.20
2018-07-16T18:35:00.921Z,26.20
2018-07-16T18:37:33.282Z,26.10
2018-07-16T18:40:02.469Z,26.00
2018-07-16T18:42:34.074Z,25.90
2018-07-16T18:45:02.910Z,25.80
2018-07-16T18:47:34.916Z,25.70
2018-07-16T18:50:03.761Z,25.60
2018-07-16T18:52:35.887Z,25.70
2018-07-16T18:55:05.173Z,25.70
2018-07-16T18:57:38.565Z,25.30
2018-07-16T19:00:08.393Z,25.00
2018-07-16T19:02:44.903Z,24.60
2018-07-16T19:05:17.841Z,24.30
2018-07-16T19:07:50.281Z,24.20
2018-07-16T19:10:18.998Z,23.70
2018-07-16T19:12:51.228Z,23.50
2018-07-16T19:15:26.572Z,23.30
2018-07-16T19:17:59.389Z,23.10
2018-07-16T19:20:28.532Z,23.00
2018-07-16T19:23:00.233Z,22.90
2018-07-16T19:25:28.959Z,22.80
2018-07-16T19:28:01.912Z,22.70
2018-07-16T19:30:30.638Z,22.70
2018-07-16T19:33:02.812Z,22.60
2018-07-16T19:35:31.583Z,22.60
2018-07-16T19:38:03.728Z,22.50
2018-07-16T19:40:32.562Z,22.50
2018-07-16T19:43:09.217Z,22.30
2018-07-16T19:45:37.972Z,22.30
2018-07-16T19:48:10.068Z,22.20
2018-07-16T19:50:38.817Z,22.20
2018-07-16T19:53:10.890Z,22.10
2018-07-16T19:55:39.858Z,22.00
2018-07-16T19:58:11.857Z,22.00
2018-07-16T20:00:40.610Z,21.90
2018-07-16T20:03:13.585Z,21.90
2018-07-16T20:05:49.493Z,21.70
2018-07-16T20:08:22.720Z,21.70
2018-07-16T20:10:52.536Z,21.50
2018-07-16T20:13:25.370Z,21.50
2018-07-16T20:15:54.080Z,21.40
2018-07-16T20:18:26.160Z,21.30
2018-07-16T20:20:58.535Z,21.20
2018-07-16T20:23:31.641Z,21.10
2018-07-16T20:26:00.599Z,21.10
2018-07-16T20:28:33.305Z,21.00
2018-07-16T20:31:02.253Z,20.90
2018-07-16T20:33:34.298Z,20.80
2018-07-16T20:36:03.413Z,20.70
2018-07-16T20:38:35.168Z,20.70
2018-07-16T20:41:03.934Z,20.60
2018-07-16T20:43:36.038Z,20.40
2018-07-16T20:46:04.773Z,20.40
2018-07-16T20:48:36.836Z,20.30
2018-07-16T20:51:05.771Z,20.30
2018-07-16T20:53:37.813Z,20.20
2018-07-16T20:56:07.199Z,20.20
2018-07-16T20:58:40.572Z,20.20
2018-07-16T21:03:42.309Z,20.00
2018-07-16T21:06:14.349Z,19.90
2018-07-16T21:08:46.837Z,19.90
2018-07-16T21:11:15.643Z,19.80
2018-07-16T21:13:48.631Z,19.70
2018-07-16T21:16:17.466Z,19.70
2018-07-16T21:18:50.356Z,19.60
2018-07-16T21:21:19.218Z,19.60
2018-07-16T21:23:51.245Z,19.50
2018-07-16T21:26:20.046Z,19.50
2018-07-16T21:28:52.166Z,19.40
2018-07-16T21:31:20.951Z,19.30
2018-07-16T21:33:52.987Z,19.20
2018-07-16T21:36:21.761Z,19.20
2018-07-16T21:38:53.956Z,19.10
2018-07-16T21:41:22.716Z,19.10
2018-07-16T21:43:55.655Z,19.10
2018-07-16T21:46:25.566Z,19.10
2018-07-16T21:48:58.336Z,19.00
2018-07-16T21:51:27.166Z,19.00
2018-07-16T21:54:03.386Z,18.90
2018-07-16T21:56:32.331Z,18.90
2018-07-16T21:59:05.626Z,18.90
2018-07-16T22:01:34.661Z,19.00
2018-07-16T22:04:07.346Z,18.90
2018-07-16T22:06:39.171Z,18.80
2018-07-16T22:09:11.941Z,18.80
2018-07-16T22:11:40.906Z,18.80
2018-07-16T22:14:13.712Z,18.80
2018-07-16T22:16:43.831Z,18.80
2018-07-16T22:19:16.309Z,18.70
2018-07-16T22:21:45.103Z,18.60
2018-07-16T22:24:17.266Z,18.60
2018-07-16T22:26:46.151Z,18.50
2018-07-16T22:29:22.126Z,18.60
2018-07-16T22:31:50.922Z,18.60
2018-07-16T22:34:23.431Z,18.50
2018-07-16T22:36:52.196Z,18.40
2018-07-16T22:39:24.339Z,18.50
2018-07-16T22:41:53.116Z,18.40
2018-07-16T22:44:25.251Z,18.40
2018-07-16T22:46:54.016Z,18.40
2018-07-16T22:49:26.162Z,18.40
2018-07-16T22:51:54.951Z,18.40
2018-07-16T22:54:27.028Z,18.40
2018-07-16T22:56:55.904Z,18.30
2018-07-16T22:59:27.866Z,18.30
2018-07-16T23:01:56.631Z,18.30
2018-07-16T23:04:29.686Z,18.30
2018-07-16T23:07:01.466Z,18.30
2018-07-16T23:09:33.266Z,18.20
2018-07-16T23:12:02.119Z,18.30
2018-07-16T23:14:34.120Z,18.30
2018-07-16T23:17:02.878Z,18.30
2018-07-16T23:19:35.051Z,18.20
2018-07-16T23:22:03.803Z,18.20
2018-07-16T23:24:35.856Z,18.30
2018-07-16T23:27:04.711Z,18.30
2018-07-16T23:29:37.766Z,18.20
2018-07-16T23:32:06.574Z,18.20
2018-07-16T23:34:39.416Z,18.20
2018-07-16T23:37:39.823Z,18.20
2018-07-16T23:40:12.128Z,18.10
2018-07-16T23:42:40.980Z,18.10
2018-07-16T23:45:13.001Z,18.20
2018-07-16T23:47:41.781Z,18.20
2018-07-16T23:53:12.351Z,18.20
2018-07-16T23:55:41.136Z,18.20
2018-07-16T23:58:13.281Z,18.20
